x

Nw Lake Ontario Ajax (45159) Wave Buoy

9:00am - Thu 31st Jul 2014 All times are CDT. -5 hours from GMT.

  • Sig Wave height 0.3ft
  • Peak Period 2s
  • Wind
  • Sea Temp 63°f
  • Air Temp 63°f
  • Sea Pressure 1015.9mb
  • Nw Lake Ontario Ajax
  • Nw Lake Ontario Ajax

More Historic Weather Station data

Upgrade to MSW Pro to gain access to the past 30 days of data for over 8000 Wavebouys and Weather Stations around the globe.

Join Pro

Comparision Forecast

View Surf forecast
   
Thu 07/31 9:00am 0.3ft 2s  -  2 mph 1015.9mb 63f 63f
8:00am 0.3ft 4s 2
mph
1015.8mb 63f 61f
7:00am 0.3ft 2s 2
mph
1015.8mb 62f 62f
6:00am 0.3ft 2s 2
mph
1015.5mb 62f 61f
5:00am 0.3ft 3s 2 4 mph 1015.3mb 62f 60f
4:00am 0.3ft 3s 2
mph
1015mb 62f 61f
3:00am 0.3ft 3s 4 7 mph 1014.7mb 63f 61f
2:00am 0.3ft 3s 4
mph
1014.4mb 63f 62f
1:00am 0.7ft 3s 2
mph
1014.5mb 63f 62f
12:00am 0.7ft 3s  -  2 mph 1014.6mb 63f 62f
Wed 07/30 11:00pm 0.7ft 3s 4 7 mph 1014.7mb 63f 62f
10:00pm 0.7ft 3s 4
mph
1015mb 64f 63f
9:00pm 0.7ft 3s 2 4 mph 1014.8mb 64f 64f
8:00pm 0.7ft 3s 2 4 mph 1014.6mb 64f 64f
7:00pm 1ft 3s  -  2 mph 1014.4mb 64f 65f
6:00pm 1ft 3s 2 4 mph 1014.2mb 64f 65f
5:00pm 0.3ft 2s 9 11 mph 1013.5mb 64f 65f
4:00pm 0.3ft 2s 11 13 mph 1013.6mb 64f 64f
3:00pm 0.3ft 2s 7
mph
1014.1mb 64f 64f
2:00pm 0.3ft 2s 9 16 mph 1014.3mb 64f 65f
1:00pm 0.7ft 3s 11
mph
1013.7mb 64f 64f
12:00pm 0.7ft 3s 9
mph
1013.9mb 64f 64f
11:00am 0.7ft 3s 4
mph
1014.3mb 64f 64f
10:00am 0.7ft 3s 4
mph
1014.6mb 64f 63f
9:00am 0.7ft 3s 2 4 mph 1014.6mb 63f 62f
8:00am 0.7ft 3s  -  2 mph 1014.4mb 62f 64f
7:00am 0.7ft 3s 4
mph
1014.2mb 62f 60f
6:00am 0.7ft 3s 9
mph
1013.8mb 63f 62f
5:00am 1ft 4s 7 9 mph 1013.7mb 63f 62f
4:00am 0.7ft 3s 2
mph
1013.5mb 62f 62f
3:00am 1ft 3s 2 4 mph 1013.3mb 62f 62f
2:00am 0.7ft 3s  -  2 mph 1013.6mb 62f 61f
1:00am 0.7ft 3s 2
mph
1013.8mb 62f 61f
12:00am 1ft 4s 7 9 mph 1014mb 62f 62f
Tue 07/29 11:00pm 0.7ft 3s 7 9 mph 1014mb 62f 62f
10:00pm 0.7ft 3s 4 7 mph 1014.2mb 62f 61f
9:00pm 0.7ft 3s 4
mph
1014.4mb 62f 62f
8:00pm 0.7ft 3s 11 16 mph 1014.1mb 62f 64f
7:00pm 1ft 3s 9
mph
1013.8mb 62f 64f
6:00pm 1ft 3s 13
mph
1013.6mb 62f 64f
5:00pm 1.3ft 3s 16 18 mph 1013.2mb 63f 65f
4:00pm 1.3ft 3s 13 16 mph 1013.1mb 63f 65f
3:00pm 1.3ft 3s 13 16 mph 1013.1mb 64f 65f
2:00pm 1.3ft 3s 16 18 mph 1013.1mb 64f 65f
1:00pm 0.7ft 2s 16 18 mph 1013.2mb 64f 64f
12:00pm 0.3ft 2s 11 13 mph 1013.3mb 63f 64f
11:00am 0.3ft 4s 11 13 mph 1013.6mb 63f 64f
10:00am 0.3ft 3s 4 7 mph 1013.5mb 63f 64f
9:00am 0.3ft 2s 4
mph
1013.5mb 62f 63f
8:00am 0.3ft 2s 7 9 mph 1013.2mb 62f 61f
7:00am 0.3ft 2s 9
mph
1012.9mb 62f 60f
6:00am 0.3ft 2s 11
mph
1012.4mb 62f 60f
5:00am 0.3ft 2s 9 11 mph 1011.9mb 62f 60f
4:00am 0.3ft 2s 9 11 mph 1011.4mb 62f 60f
3:00am 0.3ft 2s 9 11 mph 1011mb 63f 60f
2:00am 0.3ft 2s 11
mph
1011mb 63f 61f
1:00am 0.3ft 2s 11 13 mph 1011.2mb 63f 61f
12:00am 0.3ft 2s 9 13 mph 1011.1mb 63f 62f
Mon 07/28 11:00pm 0.3ft 2s 11 13 mph 1011.1mb 63f 62f
10:00pm 0.7ft 2s 13 16 mph 1011.1mb 63f 61f
9:00pm 1ft 2s 16 20 mph 1010.8mb 63f 62f
8:00pm 1ft 2s 18 20 mph 1010.3mb 64f 63f
7:00pm 1ft 2s 18 20 mph 1009.7mb 64f 64f
6:00pm 1.3ft 3s 18 25 mph 1009.3mb 63f 65f
5:00pm 1.6ft 3s 18 22 mph 1008.9mb 63f 65f
4:00pm 1.6ft 4s 20 25 mph 1008.2mb 63f 65f
3:00pm 2ft 4s 20 25 mph 1007.5mb 63f 66f
2:00pm 2ft 4s 13 18 mph 1007.2mb 63f 67f
1:00pm 2.5ft 4s 16 22 mph 1006.8mb 63f 66f
12:00pm 2.5ft 5s 20 25 mph 1006.4mb 63f 65f
11:00am 2.5ft 5s 18 20 mph 1006.3mb 64f 63f
10:00am 2.5ft 4s 20 22 mph 1005.9mb 64f 61f
9:00am 2.5ft 4s 18 22 mph 1005.5mb 64f 60f
8:00am 2.5ft 4s 22 27 mph 1004.6mb 65f 61f
7:00am 2.5ft 4s 18 22 mph 1003.8mb 64f 62f
6:00am 2ft 4s 18 25 mph 1003.2mb 63f 62f
5:00am 2ft 4s 16 20 mph 1003mb 62f 63f
4:00am 1.3ft 3s 20 25 mph 1002.3mb 61f 63f
3:00am 1ft 3s 18
mph
1002.2mb 61f 63f
2:00am 0.7ft 2s 16 18 mph 1002.3mb 61f 64f
1:00am 0.3ft 3s 13 16 mph 1002.4mb 61f 63f
12:00am 0.3ft 2s 9 11 mph 1003.5mb 61f 64f
Sun 07/27 11:00pm 0.7ft 2s 9 11 mph 1004.5mb 62f 64f
10:00pm 0.7ft 3s 16 20 mph 1002.9mb 64f 65f
9:00pm 1ft 2s 16 20 mph 1002.6mb 65f 68f
8:00pm 0.7ft 2s 18 29 mph 1002.7mb 66f 67f
7:00pm 0.7ft 3s 9 11 mph 1002.4mb 66f 71f
6:00pm 0.7ft 2s 9 11 mph 1002.6mb 66f 71f
5:00pm 0.7ft 2s 9 11 mph 1002.2mb 66f 71f
4:00pm 0.3ft 2s 13 16 mph 1002.8mb 66f 71f